createdAt,value
2018-12-26T00:15:09.319Z,5.23
2018-12-26T00:21:02.871Z,3.33
2018-12-26T00:26:37.137Z,6.30
2018-12-26T00:32:12.568Z,8.20
2018-12-26T00:37:43.883Z,10.50
2018-12-26T00:43:21.001Z,12.60
2018-12-26T00:48:40.672Z,10.60
2018-12-26T00:54:14.388Z,7.53
2018-12-26T01:00:00.795Z,6.80
2018-12-26T01:05:25.828Z,9.00
2018-12-26T01:17:01.063Z,9.50
2018-12-26T01:28:25.804Z,10.57
2018-12-26T01:34:01.912Z,9.57
2018-12-26T01:39:25.464Z,6.70
2018-12-26T01:44:42.674Z,9.97
2018-12-26T01:50:08.960Z,5.87
2018-12-26T01:55:25.185Z,5.37
2018-12-26T02:06:29.920Z,5.30
2018-12-26T02:23:22.215Z,9.67
2018-12-26T02:28:52.435Z,8.30
2018-12-26T02:34:28.049Z,5.77
2018-12-26T02:46:08.941Z,15.20
2018-12-26T02:51:36.157Z,12.33
2018-12-26T02:57:16.252Z,14.33
2018-12-26T03:03:10.787Z,9.45
2018-12-26T03:08:42.767Z,12.15
2018-12-26T03:13:57.623Z,18.87
2018-12-26T03:19:39.467Z,15.00
2018-12-26T03:25:44.495Z,17.50
2018-12-26T03:31:39.605Z,17.63
2018-12-26T03:37:27.991Z,25.30
2018-12-26T03:43:01.456Z,17.60
2018-12-26T04:00:16.024Z,20.73
2018-12-26T04:05:43.801Z,18.40
2018-12-26T04:11:33.107Z,18.23
2018-12-26T04:17:03.404Z,16.53
2018-12-26T04:22:36.974Z,16.80
2018-12-26T04:28:11.034Z,18.87
2018-12-26T04:34:09.816Z,17.00
2018-12-26T04:39:50.411Z,18.33
2018-12-26T04:45:48.091Z,20.43
2018-12-26T04:51:24.318Z,19.50
2018-12-26T04:56:46.180Z,21.43
2018-12-26T05:02:14.474Z,21.47
2018-12-26T05:07:39.011Z,24.67
2018-12-26T05:13:00.261Z,23.80
2018-12-26T05:18:33.955Z,27.33
2018-12-26T05:24:18.184Z,25.77
2018-12-26T05:30:05.628Z,28.80
2018-12-26T05:35:25.738Z,22.73
2018-12-26T05:41:09.744Z,26.03
2018-12-26T05:46:29.553Z,25.93
2018-12-26T05:52:01.436Z,22.13
2018-12-26T05:57:42.690Z,23.73
2018-12-26T06:15:52.824Z,22.93
2018-12-26T06:21:29.750Z,24.67
2018-12-26T06:27:36.073Z,26.67
2018-12-26T06:33:25.826Z,35.27
2018-12-26T06:38:37.548Z,26.93
2018-12-26T06:44:11.593Z,23.40
2018-12-26T06:50:05.859Z,26.40
2018-12-26T06:55:39.366Z,27.73
2018-12-26T07:01:26.313Z,24.40
2018-12-26T07:07:01.606Z,24.60
2018-12-26T07:12:40.473Z,26.60
2018-12-26T07:18:17.676Z,26.33
2018-12-26T07:40:27.982Z,25.30
2018-12-26T07:45:58.897Z,24.57
2018-12-26T07:51:33.740Z,27.98
2018-12-26T07:56:49.758Z,24.27
2018-12-26T08:02:08.081Z,28.23
2018-12-26T08:07:15.766Z,22.50
2018-12-26T08:12:54.098Z,26.33
2018-12-26T08:18:23.706Z,29.57
2018-12-26T08:23:46.002Z,24.70
2018-12-26T08:29:07.967Z,23.30
2018-12-26T08:34:25.076Z,26.07
2018-12-26T08:40:12.299Z,25.33
2018-12-26T08:45:27.707Z,24.67
2018-12-26T08:50:39.270Z,25.50
2018-12-26T08:55:47.680Z,23.43
2018-12-26T09:00:57.501Z,22.70
2018-12-26T09:06:09.110Z,23.18
2018-12-26T09:11:49.480Z,17.97
2018-12-26T09:17:04.694Z,18.00
2018-12-26T09:22:09.805Z,15.53
2018-12-26T09:27:15.029Z,18.03
2018-12-26T09:32:38.933Z,17.80
2018-12-26T09:37:58.660Z,19.70
2018-12-26T09:43:13.034Z,20.87
2018-12-26T10:18:09.798Z,18.30
2018-12-26T16:04:06.202Z,26.03
2018-12-26T16:09:20.144Z,28.87
2018-12-26T16:14:52.744Z,29.73
2018-12-26T16:20:48.083Z,30.33
2018-12-26T16:26:17.023Z,33.67
2018-12-26T16:31:54.850Z,31.67
2018-12-26T16:42:48.510Z,28.20
2018-12-26T16:48:07.420Z,31.60
2018-12-26T16:53:28.906Z,33.73
2018-12-26T16:59:14.500Z,30.03
2018-12-26T17:10:30.877Z,27.23
2018-12-26T17:22:08.209Z,35.50
2018-12-26T17:27:34.920Z,33.40
2018-12-26T17:33:01.131Z,30.30
2018-12-26T17:38:31.288Z,31.57
2018-12-26T17:43:46.935Z,35.07
2018-12-26T17:49:23.436Z,32.47
2018-12-26T18:01:29.622Z,30.53
2018-12-26T18:06:48.265Z,27.57
2018-12-26T18:17:35.775Z,34.73
2018-12-26T18:22:47.872Z,47.70
2018-12-26T18:27:56.774Z,47.83
2018-12-26T18:33:56.619Z,50.67
2018-12-26T18:39:20.981Z,48.17
2018-12-26T18:45:02.657Z,52.48
2018-12-26T18:50:33.823Z,61.03
2018-12-26T18:55:42.135Z,78.70
2018-12-26T19:01:30.579Z,69.97
2018-12-26T19:07:02.952Z,64.20
2018-12-26T19:12:31.725Z,82.43
2018-12-26T19:17:54.241Z,91.60
2018-12-26T19:23:34.064Z,66.43
2018-12-26T19:29:04.226Z,94.70
2018-12-26T19:34:36.753Z,98.57
2018-12-26T19:39:45.405Z,87.23
2018-12-26T19:45:01.233Z,80.93
2018-12-26T19:50:37.380Z,85.80
2018-12-26T19:56:10.149Z,83.20
2018-12-26T20:01:32.792Z,76.77
2018-12-26T20:06:49.036Z,83.53
2018-12-26T20:12:10.348Z,82.23
2018-12-26T20:22:48.444Z,92.73
2018-12-26T20:28:30.541Z,86.30
2018-12-26T20:39:30.430Z,100.00
2018-12-26T20:44:48.367Z,106.13
2018-12-26T20:50:19.948Z,81.63
2018-12-26T20:55:36.325Z,94.13
2018-12-26T21:06:38.207Z,109.47
2018-12-26T21:12:03.997Z,107.17
2018-12-26T21:17:40.693Z,90.20
2018-12-26T21:29:47.057Z,110.43
2018-12-26T21:35:09.382Z,90.83
2018-12-26T21:40:41.139Z,96.63
2018-12-26T21:46:12.454Z,92.00
2018-12-26T21:51:52.564Z,99.37
2018-12-26T21:57:20.632Z,88.47
2018-12-26T22:02:32.826Z,96.07
2018-12-26T22:07:49.956Z,87.17
2018-12-26T22:13:30.775Z,99.47
2018-12-26T22:18:46.911Z,89.93
2018-12-26T22:24:39.323Z,76.93
2018-12-26T22:30:36.913Z,83.50
2018-12-26T22:35:44.003Z,87.60
2018-12-26T22:40:58.787Z,82.00
2018-12-26T22:46:16.911Z,73.97
2018-12-26T22:51:52.334Z,70.97
2018-12-26T22:57:09.555Z,57.40
2018-12-26T23:02:38.556Z,63.60
2018-12-26T23:07:53.085Z,52.97
2018-12-26T23:13:14.062Z,66.97
2018-12-26T23:18:48.354Z,52.13
2018-12-26T23:23:56.170Z,54.07
2018-12-26T23:29:10.266Z,54.57
2018-12-26T23:39:54.885Z,59.33
2018-12-26T23:45:12.607Z,58.67
2018-12-26T23:50:32.144Z,57.47
2018-12-26T23:55:42.040Z,49.30
